Time;durP1;ratioP1;P1;durP2;ratioP2;P2;SDS_P1;SDS_P2;PMS_P1;PMS_P2;Temp;Humidity;BMP_temperature;BMP_pressure;BME280_temperature;BME280_humidity;BME280_pressure;Samples;Min_cycle;Max_cycle;Signal;HPM_P1;HPM_P2
2022/10/02 00:01:28;;;;;;;13.45;3.50;;;14.00;99.90;;;;;;4164890;28;20029;-64
2022/10/02 00:03:45;;;;;;;9.50;3.17;;;14.00;99.90;;;;;;4156374;28;20045;-64
2022/10/02 00:06:01;;;;;;;17.23;3.85;;;14.00;99.90;;;;;;4164186;28;20033;-63
2022/10/02 00:08:15;;;;;;;12.77;3.50;;;14.00;99.90;;;;;;4162527;28;20069;-63
2022/10/02 00:10:25;;;;;;;18.95;3.22;;;14.00;99.90;;;;;;4166547;28;20060;-64
2022/10/02 00:12:29;;;;;;;24.50;4.50;;;14.00;99.90;;;;;;4166013;28;20052;-64
2022/10/02 00:14:36;;;;;;;14.45;3.70;;;13.90;99.90;;;;;;4166906;28;20050;-64
2022/10/02 00:16:40;;;;;;;8.10;2.80;;;14.00;99.90;;;;;;4166356;28;20029;-64
2022/10/02 00:18:43;;;;;;;22.35;3.97;;;14.00;99.90;;;;;;4169628;28;20163;-63
2022/10/02 00:21:10;;;;;;;17.70;3.92;;;14.00;99.90;;;;;;4148341;28;20030;-64
2022/10/02 00:23:22;;;;;;;24.90;4.68;;;14.00;99.90;;;;;;4167004;28;20435;-64
2022/10/02 00:26:02;;;;;;;13.90;3.85;;;14.10;99.90;;;;;;4167131;28;20033;-64
2022/10/02 00:28:21;;;;;;;14.75;3.53;;;14.00;99.90;;;;;;4119753;28;20042;-64
2022/10/02 00:30:21;;;;;;;17.25;3.70;;;14.10;99.90;;;;;;4151677;28;20043;-64
2022/10/02 00:32:33;;;;;;;16.67;3.75;;;14.10;99.90;;;;;;4166944;28;20049;-64
2022/10/02 00:34:52;;;;;;;16.20;3.45;;;14.10;99.90;;;;;;4167903;28;20036;-63
2022/10/02 00:37:19;;;;;;;12.75;2.97;;;14.10;99.90;;;;;;4161585;28;20037;-64
2022/10/02 00:39:45;;;;;;;22.70;4.38;;;14.10;99.90;;;;;;4162843;28;20048;-64
2022/10/02 00:42:22;;;;;;;9.50;2.97;;;14.10;99.90;;;;;;4168129;28;20041;-64
2022/10/02 00:44:37;;;;;;;20.33;4.03;;;14.10;99.90;;;;;;4173774;28;20036;-63
2022/10/02 00:46:58;;;;;;;16.23;3.40;;;14.10;99.90;;;;;;4169898;28;20047;-64
2022/10/02 00:49:03;;;;;;;15.00;2.92;;;14.10;99.90;;;;;;4168700;28;20038;-66
2022/10/02 00:51:07;;;;;;;20.92;4.20;;;14.10;99.90;;;;;;4163231;28;20463;-64
2022/10/02 00:53:34;;;;;;;21.00;4.50;;;14.10;99.90;;;;;;4170673;28;22683;-64
2022/10/02 00:55:54;;;;;;;14.88;4.10;;;14.10;99.90;;;;;;4166314;28;20403;-64
2022/10/02 00:58:02;;;;;;;19.08;4.43;;;14.20;99.90;;;;;;4153032;28;20064;-63
2022/10/02 01:00:15;;;;;;;15.77;3.47;;;14.20;99.90;;;;;;4167700;28;20055;-64
2022/10/02 01:02:25;;;;;;;17.17;4.30;;;14.20;99.90;;;;;;4165249;28;20034;-64
2022/10/02 01:04:37;;;;;;;12.50;2.80;;;14.20;99.90;;;;;;4169806;28;20541;-64
2022/10/02 01:06:38;;;;;;;16.73;4.20;;;14.20;99.90;;;;;;4165091;28;20032;-64
2022/10/02 01:08:39;;;;;;;19.17;3.83;;;14.20;99.90;;;;;;4168383;28;20353;-63
2022/10/02 01:10:41;;;;;;;15.02;3.38;;;14.20;99.90;;;;;;4170793;28;20477;-63
2022/10/02 01:12:42;;;;;;;12.82;3.20;;;14.20;99.90;;;;;;4170544;28;20047;-63
2022/10/02 01:14:43;;;;;;;22.85;3.88;;;14.20;99.90;;;;;;4166237;28;20040;-64
2022/10/02 01:16:44;;;;;;;16.00;3.67;;;14.20;99.90;;;;;;4167041;28;20493;-64
2022/10/02 01:18:46;;;;;;;12.43;2.90;;;14.30;99.90;;;;;;4169820;28;20027;-64
2022/10/02 01:20:53;;;;;;;15.70;3.10;;;14.30;99.90;;;;;;4164205;28;20452;-64
2022/10/02 01:23:08;;;;;;;19.15;3.28;;;14.40;99.90;;;;;;4166514;28;20042;-64
2022/10/02 01:25:09;;;;;;;15.60;3.22;;;14.30;99.90;;;;;;4162566;28;20048;-65
2022/10/02 01:27:09;;;;;;;13.77;3.13;;;14.40;99.90;;;;;;4173560;28;20061;-64
2022/10/02 01:29:10;;;;;;;10.48;2.58;;;14.40;99.90;;;;;;4164286;28;20033;-63
2022/10/02 01:31:13;;;;;;;12.02;3.35;;;14.40;99.90;;;;;;4168132;28;20048;-64
2022/10/02 01:33:16;;;;;;;11.73;2.65;;;14.40;99.90;;;;;;4165816;28;20041;-64
2022/10/02 01:35:19;;;;;;;9.63;2.70;;;14.50;99.90;;;;;;4168681;28;20032;-64
2022/10/02 01:37:23;;;;;;;12.60;3.67;;;14.50;99.90;;;;;;4170673;28;20041;-64
2022/10/02 01:39:25;;;;;;;14.95;3.70;;;14.50;99.90;;;;;;4171094;28;20101;-64
2022/10/02 01:41:25;;;;;;;12.90;3.08;;;14.50;99.90;;;;;;4168651;28;20041;-64
2022/10/02 01:43:31;;;;;;;12.90;3.33;;;14.50;99.90;;;;;;4171558;28;20112;-64
2022/10/02 01:45:41;;;;;;;15.75;3.33;;;14.50;99.90;;;;;;4170065;28;20037;-65
2022/10/02 01:48:01;;;;;;;10.82;3.13;;;14.50;99.90;;;;;;4167039;28;20036;-64
2022/10/02 01:50:10;;;;;;;10.38;2.88;;;14.50;99.90;;;;;;4168007;28;20042;-64
2022/10/02 01:52:40;;;;;;;12.48;2.65;;;14.50;99.90;;;;;;4168933;28;20109;-64
2022/10/02 01:55:18;;;;;;;10.93;3.17;;;14.50;99.90;;;;;;4095752;29;20122;-64
2022/10/02 01:57:36;;;;;;;15.82;3.13;;;14.50;99.90;;;;;;4149838;28;20180;-64
2022/10/02 02:00:06;;;;;;;16.52;3.80;;;14.50;99.90;;;;;;4150659;28;20408;-63
2022/10/02 02:02:12;;;;;;;12.45;3.30;;;14.50;99.90;;;;;;4154400;28;20042;-64
2022/10/02 02:04:19;;;;;;;17.23;3.40;;;14.50;99.90;;;;;;4160590;28;20033;-64
2022/10/02 02:06:32;;;;;;;15.00;3.90;;;14.50;99.90;;;;;;4156227;28;20036;-64
2022/10/02 02:08:40;;;;;;;16.75;3.83;;;14.50;99.90;;;;;;4163978;28;20508;-64
2022/10/02 02:11:08;;;;;;;14.77;4.15;;;14.50;99.90;;;;;;4167156;28;20044;-64
2022/10/02 02:13:25;;;;;;;19.02;3.53;;;14.50;99.90;;;;;;4171687;28;20037;-64
2022/10/02 02:15:46;;;;;;;14.45;3.70;;;14.50;99.90;;;;;;4168053;28;20064;-63
2022/10/02 02:17:56;;;;;;;15.77;3.55;;;14.40;99.90;;;;;;4165585;28;20037;-64
2022/10/02 02:20:12;;;;;;;17.10;3.60;;;14.50;99.90;;;;;;4172056;28;20032;-64
2022/10/02 02:22:25;;;;;;;12.93;3.35;;;14.50;99.90;;;;;;4171529;28;20515;-64
2022/10/02 02:24:35;;;;;;;11.68;3.38;;;14.50;99.90;;;;;;4172897;28;20039;-64
2022/10/02 02:26:37;;;;;;;15.65;3.55;;;14.50;99.90;;;;;;4158705;28;20029;-64
2022/10/02 02:28:47;;;;;;;14.02;4.13;;;14.50;99.90;;;;;;4159953;28;20412;-64
2022/10/02 02:30:51;;;;;;;13.57;3.40;;;14.50;99.90;;;;;;4169764;28;20107;-69
2022/10/02 02:33:06;;;;;;;21.15;4.50;;;14.50;99.90;;;;;;4172366;28;20056;-64
2022/10/02 02:35:13;;;;;;;14.75;3.80;;;14.50;99.90;;;;;;4151638;28;20728;-64
2022/10/02 02:37:18;;;;;;;15.27;3.90;;;14.50;99.90;;;;;;4172995;28;20022;-64
2022/10/02 02:39:30;;;;;;;14.77;3.58;;;14.50;99.90;;;;;;4171125;28;20033;-65
2022/10/02 02:41:37;;;;;;;14.80;3.78;;;14.50;99.90;;;;;;4169027;28;20104;-64
2022/10/02 02:43:47;;;;;;;16.38;4.25;;;14.50;99.90;;;;;;4174048;28;20025;-63
2022/10/02 02:45:57;;;;;;;15.90;3.92;;;14.50;99.90;;;;;;4171003;28;20029;-68
2022/10/02 02:48:08;;;;;;;15.40;3.15;;;14.50;99.90;;;;;;4177415;28;20033;-64
2022/10/02 02:50:20;;;;;;;14.55;4.03;;;14.50;99.90;;;;;;4170360;28;20113;-64
2022/10/02 02:52:28;;;;;;;16.33;3.58;;;14.50;99.90;;;;;;4176095;28;20243;-64
2022/10/02 02:54:52;;;;;;;12.10;3.58;;;14.50;99.90;;;;;;4172446;28;20539;-64
2022/10/02 02:56:56;;;;;;;19.50;4.07;;;14.60;99.90;;;;;;4153437;28;20034;-64
2022/10/02 02:59:05;;;;;;;26.92;5.03;;;14.60;99.90;;;;;;4172397;28;20040;-64
2022/10/02 03:01:06;;;;;;;17.42;4.13;;;14.60;99.90;;;;;;4151825;28;20072;-64
2022/10/02 03:03:07;;;;;;;15.63;3.47;;;14.60;99.90;;;;;;4169769;28;20033;-64
2022/10/02 03:05:12;;;;;;;21.33;4.55;;;14.60;99.90;;;;;;4163182;28;20045;-64
2022/10/02 03:07:15;;;;;;;15.48;3.80;;;14.60;99.90;;;;;;4172337;28;20029;-64
2022/10/02 03:09:19;;;;;;;20.42;4.68;;;14.60;99.90;;;;;;4171977;28;20033;-64
2022/10/02 03:11:43;;;;;;;15.02;3.35;;;14.60;99.90;;;;;;4169525;28;20061;-64
2022/10/02 03:13:43;;;;;;;17.25;3.35;;;14.60;99.90;;;;;;4100533;28;20474;-64
2022/10/02 03:16:01;;;;;;;14.35;3.70;;;14.60;99.90;;;;;;4139567;28;20034;-64
2022/10/02 03:18:17;;;;;;;24.42;3.97;;;14.60;99.90;;;;;;4151070;28;20073;-65
2022/10/02 03:20:40;;;;;;;19.20;3.58;;;14.60;99.90;;;;;;4149380;28;20030;-64
2022/10/02 03:23:03;;;;;;;15.57;4.28;;;14.60;99.90;;;;;;4146793;28;20533;-64
2022/10/02 03:25:37;;;;;;;18.42;4.13;;;14.60;99.90;;;;;;4139891;28;20041;-65
2022/10/02 03:27:44;;;;;;;21.60;3.92;;;14.60;99.90;;;;;;4139567;28;20032;-64
2022/10/02 03:29:54;;;;;;;17.48;4.22;;;14.60;99.90;;;;;;4144283;28;20018;-64
2022/10/02 03:31:55;;;;;;;14.43;3.00;;;14.60;99.90;;;;;;4131975;28;20034;-64
2022/10/02 03:33:58;;;;;;;17.00;4.13;;;14.60;99.90;;;;;;4137486;28;20049;-64
2022/10/02 03:36:00;;;;;;;19.73;4.05;;;14.60;99.90;;;;;;4138983;28;20034;-64
2022/10/02 03:38:06;;;;;;;17.60;4.30;;;14.60;99.90;;;;;;4138974;28;20049;-63
2022/10/02 03:40:07;;;;;;;23.35;4.85;;;14.60;99.90;;;;;;4132829;28;20050;-64
2022/10/02 03:42:14;;;;;;;19.75;4.00;;;14.60;99.90;;;;;;4134748;28;20060;-64
2022/10/02 03:44:14;;;;;;;26.42;4.30;;;14.70;99.90;;;;;;4133791;28;20038;-64
2022/10/02 03:46:16;;;;;;;24.85;5.47;;;14.70;99.90;;;;;;4134710;28;20053;-64
2022/10/02 03:48:17;;;;;;;22.02;4.47;;;14.60;99.90;;;;;;4135486;28;20037;-64
2022/10/02 03:50:17;;;;;;;22.13;4.45;;;14.70;99.90;;;;;;4137906;28;20128;-64
2022/10/02 03:52:21;;;;;;;17.88;4.22;;;14.70;99.90;;;;;;4136660;28;20037;-63
2022/10/02 03:54:22;;;;;;;23.33;4.18;;;14.70;99.90;;;;;;4144158;28;20127;-64
2022/10/02 03:56:38;;;;;;;16.33;3.72;;;14.70;99.90;;;;;;4139403;28;20096;-64
2022/10/02 03:58:44;;;;;;;19.08;4.22;;;14.70;99.90;;;;;;4150051;28;20067;-63
2022/10/02 04:01:14;;;;;;;11.15;2.80;;;14.70;99.90;;;;;;4149155;28;20045;-63
2022/10/02 04:03:28;;;;;;;15.05;3.08;;;14.70;99.90;;;;;;4153021;28;20037;-64
2022/10/02 04:05:40;;;;;;;18.88;3.60;;;14.70;99.90;;;;;;4152177;28;20107;-63
2022/10/02 04:07:44;;;;;;;8.20;2.45;;;14.70;99.90;;;;;;4150889;28;20078;-63
2022/10/02 04:10:01;;;;;;;14.32;2.75;;;14.70;99.90;;;;;;4151459;28;20030;-64
2022/10/02 04:12:20;;;;;;;11.52;2.72;;;14.70;99.90;;;;;;4157045;28;20030;-64
2022/10/02 04:14:43;;;;;;;12.90;3.10;;;14.70;99.90;;;;;;4166778;28;20029;-64
2022/10/02 04:17:01;;;;;;;12.50;3.00;;;14.70;99.90;;;;;;4171917;28;20039;-64
2022/10/02 04:19:16;;;;;;;15.07;3.20;;;14.60;99.90;;;;;;4146708;28;20512;-64
2022/10/02 04:21:40;;;;;;;12.73;2.67;;;14.60;99.90;;;;;;4156058;28;20025;-64
2022/10/02 04:24:14;;;;;;;11.60;2.80;;;14.70;99.90;;;;;;4154579;28;20033;-63
2022/10/02 04:26:21;;;;;;;6.72;2.13;;;14.60;99.90;;;;;;4149504;28;20069;-63
2022/10/02 04:28:29;;;;;;;10.52;2.22;;;14.60;99.90;;;;;;4147032;28;20037;-63
2022/10/02 04:30:31;;;;;;;8.25;2.15;;;14.60;99.90;;;;;;4164381;28;20037;-64
2022/10/02 04:32:33;;;;;;;5.75;2.15;;;14.60;99.90;;;;;;4148801;28;20111;-64
2022/10/02 04:34:34;;;;;;;6.55;1.92;;;14.60;99.90;;;;;;4155832;28;20111;-65
2022/10/02 04:36:41;;;;;;;7.18;2.25;;;14.60;99.90;;;;;;4153680;28;20033;-64
2022/10/02 04:38:44;;;;;;;9.32;2.28;;;14.60;99.90;;;;;;4153497;28;20507;-63
2022/10/02 04:40:55;;;;;;;9.43;2.40;;;14.60;99.90;;;;;;4151217;28;20033;-64
2022/10/02 04:43:07;;;;;;;8.68;2.72;;;14.60;99.90;;;;;;4153940;28;20041;-64
2022/10/02 04:45:25;;;;;;;9.70;2.50;;;14.60;99.90;;;;;;4149262;28;20647;-64
2022/10/02 04:47:53;;;;;;;7.28;2.20;;;14.60;99.90;;;;;;4152559;28;20141;-64
2022/10/02 04:49:54;;;;;;;11.55;2.60;;;14.60;99.90;;;;;;4147937;28;20033;-64
2022/10/02 04:52:22;;;;;;;6.15;2.15;;;14.50;99.90;;;;;;4154721;28;20491;-64
2022/10/02 04:54:56;;;;;;;7.95;2.05;;;14.50;99.90;;;;;;4155550;28;20084;-64
2022/10/02 04:57:32;;;;;;;5.30;1.73;;;14.50;99.90;;;;;;4152285;28;20033;-64
2022/10/02 04:59:52;;;;;;;8.05;2.20;;;14.60;99.90;;;;;;4118260;28;20030;-67
2022/10/02 05:02:23;;;;;;;9.65;2.20;;;14.60;99.90;;;;;;4136472;28;20104;-64
2022/10/02 05:04:37;;;;;;;9.65;2.42;;;14.60;99.90;;;;;;4153661;28;20033;-64
2022/10/02 05:06:57;;;;;;;5.30;1.90;;;14.60;99.90;;;;;;4153907;28;20397;-64
2022/10/02 05:09:15;;;;;;;8.02;2.13;;;14.60;99.90;;;;;;4146634;28;20120;-64
2022/10/02 05:11:51;;;;;;;11.30;2.72;;;14.50;99.90;;;;;;4147810;28;20041;-64
2022/10/02 05:14:11;;;;;;;7.13;2.05;;;14.60;99.90;;;;;;4169127;28;20049;-64
2022/10/02 05:16:47;;;;;;;9.85;2.80;;;14.50;99.90;;;;;;4152175;28;20029;-64
2022/10/02 05:19:27;;;;;;;6.35;1.92;;;14.50;99.90;;;;;;4161589;28;20025;-64
2022/10/02 05:21:46;;;;;;;7.47;2.03;;;14.50;99.90;;;;;;4121536;28;20508;-64
2022/10/02 05:24:06;;;;;;;8.07;2.50;;;14.50;99.90;;;;;;4155015;28;20025;-65
2022/10/02 05:26:43;;;;;;;8.18;2.20;;;14.60;99.90;;;;;;4145035;28;21200;-64
2022/10/02 05:28:52;;;;;;;5.07;2.00;;;14.60;99.90;;;;;;4165745;28;20041;-64
2022/10/02 05:30:52;;;;;;;6.25;2.10;;;14.60;99.90;;;;;;4145637;28;20038;-65
2022/10/02 05:33:31;;;;;;;6.25;2.03;;;14.60;99.90;;;;;;4165599;28;21715;-65
2022/10/02 05:35:56;;;;;;;16.95;2.75;;;14.60;99.90;;;;;;4163164;28;20438;-64
2022/10/02 05:38:09;;;;;;;9.38;2.38;;;14.60;99.90;;;;;;4165353;28;20033;-64
2022/10/02 05:40:38;;;;;;;8.25;2.35;;;14.60;99.90;;;;;;4147219;28;20424;-64
2022/10/02 05:43:14;;;;;;;6.70;2.22;;;14.60;99.90;;;;;;4166025;28;20516;-64
2022/10/02 05:45:42;;;;;;;9.52;2.30;;;14.60;99.90;;;;;;4122318;28;20116;-65
2022/10/02 05:47:45;;;;;;;8.50;2.42;;;14.60;99.90;;;;;;4164869;28;20048;-65
2022/10/02 05:49:59;;;;;;;8.13;2.40;;;14.60;99.90;;;;;;4166686;28;20029;-64
2022/10/02 05:52:02;;;;;;;8.25;2.75;;;14.60;99.90;;;;;;4160221;28;20037;-64
2022/10/02 05:54:25;;;;;;;11.07;2.08;;;14.60;99.90;;;;;;4158477;28;20396;-64
2022/10/02 05:56:45;;;;;;;6.07;2.30;;;14.60;99.90;;;;;;4147836;28;20026;-64
2022/10/02 05:59:23;;;;;;;6.43;2.28;;;14.60;99.90;;;;;;4148709;28;20406;-64
2022/10/02 06:01:32;;;;;;;9.05;2.30;;;14.60;99.90;;;;;;4162725;28;20400;-64
2022/10/02 06:03:40;;;;;;;7.38;2.00;;;14.60;99.90;;;;;;4163835;28;20033;-64
2022/10/02 06:05:49;;;;;;;5.78;1.88;;;14.60;99.90;;;;;;4161722;28;20033;-64
2022/10/02 06:07:55;;;;;;;7.10;2.25;;;14.60;99.90;;;;;;4162033;28;20037;-66
2022/10/02 06:10:14;;;;;;;10.15;2.75;;;14.60;99.90;;;;;;4165137;28;20485;-64
2022/10/02 06:12:25;;;;;;;5.47;1.98;;;14.60;99.90;;;;;;4164480;28;20040;-64
2022/10/02 06:15:14;;;;;;;8.73;2.35;;;14.70;99.90;;;;;;4162287;28;20021;-64
2022/10/02 06:17:46;;;;;;;7.85;2.53;;;14.60;99.90;;;;;;4094143;28;20402;-64
2022/10/02 06:19:53;;;;;;;8.07;2.35;;;14.70;99.90;;;;;;4116745;28;20489;-64
2022/10/02 06:22:05;;;;;;;12.85;3.05;;;14.70;99.90;;;;;;4158958;28;20033;-64
2022/10/02 06:24:15;;;;;;;11.45;2.92;;;14.70;99.90;;;;;;4161744;28;20508;-64
2022/10/02 06:26:35;;;;;;;11.38;2.70;;;14.70;99.90;;;;;;4162376;28;20033;-64
2022/10/02 06:28:50;;;;;;;12.50;3.25;;;14.70;99.90;;;;;;4160234;28;20033;-64
2022/10/02 06:31:29;;;;;;;12.05;2.95;;;14.70;99.90;;;;;;4135256;28;20487;-65
2022/10/02 06:33:32;;;;;;;5.70;2.30;;;14.70;99.90;;;;;;4110331;28;20033;-64
2022/10/02 06:35:32;;;;;;;;;;;14.70;99.90;;;;;;4156405;28;20391;-64
2022/10/02 06:37:41;;;;;;;10.88;2.63;;;14.80;99.90;;;;;;4150029;28;19916;-64
2022/10/02 06:39:45;;;;;;;9.82;3.15;;;14.80;99.90;;;;;;4155677;28;20377;-64
2022/10/02 06:42:00;;;;;;;13.57;2.90;;;14.80;99.90;;;;;;4156933;28;20064;-64
2022/10/02 06:44:27;;;;;;;8.77;2.90;;;14.80;99.90;;;;;;4168603;28;20025;-64
2022/10/02 06:46:42;;;;;;;9.30;2.72;;;14.80;99.90;;;;;;4163457;28;20037;-64
2022/10/02 06:48:58;;;;;;;9.88;2.88;;;14.80;99.90;;;;;;4158245;28;20436;-64
2022/10/02 06:51:13;;;;;;;15.02;3.00;;;14.80;99.90;;;;;;4141691;28;20477;-64
2022/10/02 06:53:38;;;;;;;8.00;2.60;;;14.90;99.90;;;;;;4153966;28;20393;-64
2022/10/02 06:55:58;;;;;;;13.20;3.22;;;14.90;99.90;;;;;;4158753;28;20380;-65
2022/10/02 06:58:04;;;;;;;14.38;3.15;;;14.90;99.90;;;;;;4157526;28;20026;-64
2022/10/02 07:00:11;;;;;;;8.43;2.75;;;15.00;99.90;;;;;;4153716;28;20026;-66
2022/10/02 07:02:31;;;;;;;11.15;3.05;;;15.00;99.90;;;;;;4163596;28;20037;-64
2022/10/02 07:04:43;;;;;;;13.75;3.17;;;15.00;99.90;;;;;;4165887;28;20380;-64
2022/10/02 07:07:24;;;;;;;11.67;2.97;;;15.00;99.90;;;;;;4168246;28;20123;-64
2022/10/02 07:09:47;;;;;;;11.02;2.75;;;15.00;99.90;;;;;;4129620;28;20036;-64
2022/10/02 07:12:07;;;;;;;9.48;3.13;;;15.00;99.90;;;;;;4165959;28;20053;-64
2022/10/02 07:14:41;;;;;;;10.85;3.17;;;15.10;99.90;;;;;;4165551;28;20033;-65
2022/10/02 07:17:08;;;;;;;13.95;3.85;;;15.00;99.90;;;;;;4163444;28;20388;-65
2022/10/02 07:19:38;;;;;;;11.27;3.25;;;15.00;99.90;;;;;;4154756;28;20025;-64
2022/10/02 07:21:55;;;;;;;12.95;3.40;;;15.00;99.90;;;;;;4122227;28;20056;-64
2022/10/02 07:24:09;;;;;;;7.93;2.97;;;15.10;99.90;;;;;;4154346;28;20511;-64
2022/10/02 07:26:25;;;;;;;9.57;3.20;;;15.10;99.90;;;;;;4155406;28;20526;-65
2022/10/02 07:28:38;;;;;;;8.35;2.70;;;15.20;99.90;;;;;;4163132;28;20041;-64
2022/10/02 07:30:50;;;;;;;10.70;3.38;;;15.20;99.90;;;;;;4153150;28;20106;-64
2022/10/02 07:33:00;;;;;;;9.18;2.75;;;15.20;99.90;;;;;;4151832;28;20034;-64
2022/10/02 07:35:20;;;;;;;5.45;2.70;;;15.30;99.90;;;;;;4161697;28;20401;-64
2022/10/02 07:37:40;;;;;;;6.05;2.58;;;15.30;99.90;;;;;;4161773;28;20192;-65
2022/10/02 07:40:18;;;;;;;11.13;2.85;;;15.30;99.90;;;;;;4164223;28;20036;-64
2022/10/02 07:42:40;;;;;;;10.10;2.72;;;15.40;99.90;;;;;;4169341;28;20508;-64
2022/10/02 07:45:13;;;;;;;8.68;2.85;;;15.40;99.90;;;;;;4159138;28;20025;-64
2022/10/02 07:47:39;;;;;;;8.93;2.53;;;15.50;99.90;;;;;;4156185;28;20029;-64
2022/10/02 07:49:55;;;;;;;5.78;1.83;;;15.50;99.90;;;;;;4165904;28;20033;-65
2022/10/02 07:52:28;;;;;;;11.48;2.72;;;15.60;99.90;;;;;;4170276;28;20116;-64
2022/10/02 07:54:47;;;;;;;11.32;3.13;;;15.50;99.90;;;;;;4144722;28;20124;-64
2022/10/02 07:56:51;;;;;;;13.98;3.45;;;15.50;99.90;;;;;;4153749;28;20128;-64
2022/10/02 07:59:02;;;;;;;12.65;3.35;;;15.50;99.90;;;;;;4163711;28;20041;-65
2022/10/02 08:01:11;;;;;;;12.75;3.70;;;15.50;99.90;;;;;;4172702;28;20033;-64
2022/10/02 08:03:19;;;;;;;9.55;3.45;;;15.50;99.90;;;;;;4171509;28;20033;-64
2022/10/02 08:05:24;;;;;;;11.40;3.13;;;15.60;99.90;;;;;;4172448;28;20091;-64
2022/10/02 08:07:27;;;;;;;10.02;3.25;;;15.60;99.90;;;;;;4169145;28;20113;-65
2022/10/02 08:09:36;;;;;;;12.70;4.13;;;15.60;99.90;;;;;;4167836;28;20044;-64
2022/10/02 08:11:48;;;;;;;10.10;3.03;;;15.60;99.90;;;;;;4169853;28;20116;-65
2022/10/02 08:14:10;;;;;;;16.13;3.85;;;15.60;99.90;;;;;;4171417;28;20500;-65
2022/10/02 08:16:13;;;;;;;10.90;3.65;;;15.60;99.90;;;;;;4163708;28;20234;-65
2022/10/02 08:18:31;;;;;;;10.98;3.75;;;15.60;99.90;;;;;;4165407;28;20073;-65
2022/10/02 08:20:38;;;;;;;16.55;4.00;;;15.60;99.90;;;;;;4164020;28;20037;-64
2022/10/02 08:22:45;;;;;;;10.90;3.38;;;15.70;99.90;;;;;;4165902;28;20336;-65
2022/10/02 08:24:50;;;;;;;11.05;3.63;;;15.60;99.90;;;;;;4164678;28;20034;-65
2022/10/02 08:27:04;;;;;;;11.48;3.85;;;15.60;99.90;;;;;;4161797;28;20037;-65
2022/10/02 08:29:13;;;;;;;16.75;5.13;;;15.70;99.90;;;;;;4162309;28;20026;-64
2022/10/02 08:31:14;;;;;;;12.75;3.58;;;15.70;99.90;;;;;;4161872;28;20033;-65
2022/10/02 08:33:20;;;;;;;17.13;4.80;;;15.70;99.90;;;;;;4164334;28;20052;-65
2022/10/02 08:35:31;;;;;;;13.13;3.33;;;15.70;99.90;;;;;;4160220;28;20523;-65
2022/10/02 08:37:32;;;;;;;10.85;2.92;;;15.70;99.90;;;;;;4162747;28;20815;-64
2022/10/02 08:39:51;;;;;;;10.50;3.20;;;15.70;99.90;;;;;;4161503;28;20036;-65
2022/10/02 08:42:14;;;;;;;12.68;3.72;;;15.70;99.90;;;;;;4165862;28;20037;-64
2022/10/02 08:44:45;;;;;;;10.48;3.75;;;15.80;99.90;;;;;;4166552;28;20076;-65
2022/10/02 08:47:08;;;;;;;12.93;3.47;;;15.80;99.90;;;;;;4163607;28;20427;-64
2022/10/02 08:49:15;;;;;;;9.50;3.22;;;15.70;99.90;;;;;;4161404;28;20397;-65
2022/10/02 08:51:52;;;;;;;10.27;3.42;;;15.80;99.90;;;;;;4165060;28;20026;-65
2022/10/02 08:54:33;;;;;;;12.25;3.05;;;15.80;99.90;;;;;;4131100;28;20433;-65
2022/10/02 08:56:43;;;;;;;12.82;3.35;;;15.80;99.90;;;;;;4150638;28;20037;-64
2022/10/02 08:59:17;;;;;;;11.25;3.30;;;15.90;99.90;;;;;;4163920;28;20079;-64
2022/10/02 09:01:24;;;;;;;9.75;2.85;;;15.90;99.90;;;;;;4171579;28;20031;-64
2022/10/02 09:03:50;;;;;;;9.98;3.00;;;15.90;99.90;;;;;;4168444;28;20045;-64
2022/10/02 09:05:54;;;;;;;8.60;2.65;;;15.90;99.90;;;;;;4163950;28;20033;-65
2022/10/02 09:08:08;;;;;;;7.60;2.25;;;15.90;99.90;;;;;;4171201;28;20395;-64
2022/10/02 09:10:35;;;;;;;6.65;2.60;;;16.00;99.90;;;;;;4163131;28;20044;-65
2022/10/02 09:13:23;;;;;;;6.68;2.53;;;15.90;99.90;;;;;;4166834;28;20044;-65
2022/10/02 09:15:52;;;;;;;7.82;2.60;;;15.90;99.90;;;;;;4160830;28;20262;-64
2022/10/02 09:18:28;;;;;;;6.65;2.53;;;16.00;99.90;;;;;;4165406;28;20455;-65
2022/10/02 09:21:13;;;;;;;6.25;2.10;;;15.90;99.90;;;;;;4064911;29;20039;-64
2022/10/02 09:23:32;;;;;;;6.50;2.40;;;15.90;99.90;;;;;;4149764;28;20022;-65
2022/10/02 09:26:16;;;;;;;3.85;1.73;;;15.90;99.90;;;;;;4163203;28;20078;-64
2022/10/02 09:29:11;;;;;;;8.52;1.95;;;16.00;99.90;;;;;;4162836;28;20040;-64
2022/10/02 09:31:39;;;;;;;6.30;2.15;;;16.00;99.90;;;;;;4101232;28;20045;-64
2022/10/02 09:34:18;;;;;;;9.07;2.75;;;16.00;99.90;;;;;;4149111;28;20407;-64
2022/10/02 09:36:56;;;;;;;5.95;2.30;;;16.00;99.90;;;;;;4164902;28;20037;-64
2022/10/02 09:39:23;;;;;;;8.50;2.67;;;16.00;99.90;;;;;;4162135;28;20061;-65
2022/10/02 09:41:48;;;;;;;9.55;2.70;;;16.10;99.90;;;;;;4149619;28;20046;-65
2022/10/02 09:44:27;;;;;;;6.47;2.33;;;16.00;99.90;;;;;;4143249;28;20033;-65
2022/10/02 09:46:32;;;;;;;10.75;2.92;;;16.00;99.90;;;;;;4158540;28;20037;-64
2022/10/02 09:48:44;;;;;;;11.73;3.17;;;16.00;99.90;;;;;;4163338;28;20026;-64
2022/10/02 09:50:57;;;;;;;7.53;2.80;;;16.00;99.90;;;;;;4161403;28;20041;-64
2022/10/02 09:53:18;;;;;;;;;;;16.10;99.90;;;;;;4162046;28;20046;-65
2022/10/02 09:55:28;;;;;;;8.43;2.85;;;16.10;99.90;;;;;;4160899;28;19921;-65
2022/10/02 09:57:47;;;;;;;7.88;2.72;;;16.20;99.90;;;;;;4145563;28;20505;-65
2022/10/02 09:59:59;;;;;;;10.60;4.25;;;16.20;99.90;;;;;;4163743;28;20033;-64
2022/10/02 10:02:24;;;;;;;10.20;3.17;;;16.30;99.90;;;;;;4154340;28;20033;-65
2022/10/02 10:04:52;;;;;;;5.88;2.63;;;16.50;99.90;;;;;;4149908;28;20057;-64
2022/10/02 10:07:11;;;;;;;7.97;3.00;;;16.50;99.90;;;;;;4161508;28;20045;-65
2022/10/02 10:09:47;;;;;;;7.55;2.50;;;16.60;99.90;;;;;;4163659;28;20037;-65
2022/10/02 10:12:00;;;;;;;9.63;3.20;;;16.70;99.90;;;;;;4159251;28;20551;-65
2022/10/02 10:14:28;;;;;;;6.32;2.17;;;16.80;99.90;;;;;;4166198;28;20072;-65
2022/10/02 10:16:56;;;;;;;14.48;3.28;;;16.80;99.90;;;;;;4157814;28;20448;-65
2022/10/02 10:19:01;;;;;;;10.18;3.60;;;16.90;99.90;;;;;;4159098;28;20084;-65
2022/10/02 10:21:37;;;;;;;9.60;2.97;;;16.80;99.90;;;;;;4165568;28;20034;-64
2022/10/02 10:24:05;;;;;;;9.40;3.05;;;16.90;99.90;;;;;;4142505;28;20025;-65
2022/10/02 10:26:26;;;;;;;7.50;3.05;;;16.90;99.90;;;;;;4172797;28;20028;-65
2022/10/02 10:28:56;;;;;;;6.78;2.90;;;17.00;99.90;;;;;;4168584;28;20033;-64
2022/10/02 10:31:15;;;;;;;16.55;3.78;;;17.00;99.90;;;;;;4153530;28;20572;-64
2022/10/02 10:34:01;;;;;;;8.07;2.83;;;17.00;99.90;;;;;;4157844;28;20026;-65
2022/10/02 10:39:25;;;;;;;7.35;2.80;;;17.10;99.90;;;;;;4168490;28;20034;-64
2022/10/02 10:42:00;;;;;;;10.75;2.90;;;17.10;99.90;;;;;;4167381;28;20574;-65
2022/10/02 10:44:10;;;;;;;10.50;2.55;;;17.20;99.90;;;;;;4167868;28;20025;-66
2022/10/02 10:46:32;;;;;;;9.27;2.42;;;17.30;99.90;;;;;;4151079;28;20322;-67
2022/10/02 10:48:36;;;;;;;7.57;2.80;;;17.30;99.90;;;;;;4166003;28;20112;-64
2022/10/02 10:51:01;;;;;;;8.82;2.50;;;17.40;99.90;;;;;;4168304;28;20494;-65
2022/10/02 10:53:23;;;;;;;5.30;2.42;;;17.30;99.90;;;;;;4164761;28;20037;-65
2022/10/02 10:55:58;;;;;;;8.45;2.55;;;17.40;99.90;;;;;;4166892;28;20034;-64
2022/10/02 10:58:25;;;;;;;16.33;3.42;;;17.40;99.90;;;;;;4157174;28;20456;-64
2022/10/02 11:00:39;;;;;;;13.30;3.70;;;17.30;99.90;;;;;;4159526;28;20125;-64
2022/10/02 11:02:46;;;;;;;11.63;3.17;;;17.30;99.90;;;;;;4165586;28;20109;-64
2022/10/02 11:05:06;;;;;;;9.57;2.35;;;17.30;99.90;;;;;;4170403;28;20073;-64
2022/10/02 11:07:44;;;;;;;12.00;2.97;;;17.30;99.90;;;;;;4165145;28;20026;-65
2022/10/02 11:10:02;;;;;;;9.32;2.40;;;17.30;99.90;;;;;;4171754;28;20021;-65
2022/10/02 11:12:35;;;;;;;8.55;2.30;;;17.30;99.90;;;;;;4168959;28;20086;-64
2022/10/02 11:15:05;;;;;;;12.15;2.97;;;17.30;99.90;;;;;;4170591;28;20029;-65
2022/10/02 11:17:24;;;;;;;12.27;2.72;;;17.40;99.90;;;;;;4159658;28;20029;-64
2022/10/02 11:19:50;;;;;;;14.40;2.67;;;17.40;99.90;;;;;;4168963;28;20442;-65
2022/10/02 11:22:06;;;;;;;10.20;3.08;;;17.40;99.90;;;;;;4165849;28;20095;-64
2022/10/02 11:24:35;;;;;;;12.68;2.63;;;17.40;99.90;;;;;;4151498;28;20041;-65
2022/10/02 11:26:45;;;;;;;12.02;2.63;;;17.30;99.90;;;;;;4162988;28;20046;-64
2022/10/02 11:28:45;;;;;;;9.93;2.60;;;17.40;99.90;;;;;;4175181;28;20215;-65
2022/10/02 11:30:48;;;;;;;13.73;3.50;;;17.40;99.90;;;;;;4163798;28;20412;-65
2022/10/02 11:33:19;;;;;;;10.63;2.80;;;17.40;99.90;;;;;;4172445;28;20094;-64
2022/10/02 11:35:23;;;;;;;12.80;3.35;;;17.40;99.90;;;;;;4170413;28;20021;-65
2022/10/02 11:37:51;;;;;;;9.85;2.40;;;17.40;99.90;;;;;;4166004;28;20025;-65
2022/10/02 11:40:11;;;;;;;8.73;2.40;;;17.40;99.90;;;;;;4170702;28;20456;-67
2022/10/02 11:42:27;;;;;;;12.55;3.38;;;17.50;99.90;;;;;;4151370;28;20037;-65
2022/10/02 11:44:30;;;;;;;9.73;2.30;;;17.50;99.90;;;;;;4172109;28;20400;-65
2022/10/02 11:47:00;;;;;;;8.27;2.53;;;17.50;99.90;;;;;;4169497;28;20021;-65